createdAt,value
2023-01-09T00:00:20.823Z,0.00
2023-01-09T00:01:20.919Z,0.00
2023-01-09T00:02:20.998Z,0.00
2023-01-09T00:03:21.019Z,0.00
2023-01-09T00:04:21.090Z,0.00
2023-01-09T00:05:21.188Z,0.00
2023-01-09T00:06:21.273Z,0.00
2023-01-09T00:07:21.358Z,0.00
2023-01-09T00:08:21.397Z,0.00
2023-01-09T00:09:21.492Z,0.00
2023-01-09T00:10:21.589Z,0.00
2023-01-09T00:11:21.672Z,0.00
2023-01-09T00:12:21.731Z,0.00
2023-01-09T00:13:21.822Z,0.00
2023-01-09T00:14:21.893Z,0.00
2023-01-09T00:15:21.989Z,0.00
2023-01-09T00:16:22.193Z,0.00
2023-01-09T00:17:22.158Z,0.00
2023-01-09T00:18:22.230Z,0.00
2023-01-09T00:19:22.327Z,0.00
2023-01-09T00:20:22.399Z,0.00
2023-01-09T00:21:22.507Z,0.00
2023-01-09T00:22:22.585Z,0.00
2023-01-09T00:23:22.681Z,0.00
2023-01-09T00:24:22.750Z,0.00
2023-01-09T00:25:22.862Z,0.00
2023-01-09T00:26:22.927Z,0.00
2023-01-09T00:27:23.019Z,0.00
2023-01-09T00:28:23.097Z,0.00
2023-01-09T00:29:23.191Z,0.00
2023-01-09T00:30:23.279Z,0.00
2023-01-09T00:31:23.347Z,0.00
2023-01-09T00:32:23.387Z,0.00
2023-01-09T00:33:23.453Z,0.00
2023-01-09T00:34:23.525Z,0.00
2023-01-09T00:35:23.617Z,0.00
2023-01-09T00:36:23.719Z,0.00
2023-01-09T00:37:23.777Z,0.00
2023-01-09T00:38:23.833Z,0.00
2023-01-09T00:39:23.923Z,0.00
2023-01-09T00:40:23.990Z,0.00
2023-01-09T00:41:24.099Z,0.00
2023-01-09T00:42:24.156Z,0.00
2023-01-09T00:43:24.245Z,0.00
2023-01-09T00:44:24.315Z,0.00
2023-01-09T00:45:24.416Z,0.00
2023-01-09T00:46:24.580Z,0.00
2023-01-09T00:47:24.581Z,0.00
2023-01-09T00:48:24.639Z,0.00
2023-01-09T00:49:24.726Z,0.00
2023-01-09T00:50:24.796Z,0.00
2023-01-09T00:51:24.884Z,0.00
2023-01-09T00:52:24.952Z,0.00
2023-01-09T00:53:25.050Z,0.00
2023-01-09T00:54:25.127Z,0.00
2023-01-09T00:55:25.233Z,0.00
2023-01-09T00:56:25.328Z,0.00
2023-01-09T00:57:25.380Z,0.00
2023-01-09T00:58:25.460Z,0.00
2023-01-09T00:59:25.548Z,0.00
2023-01-09T01:00:25.621Z,0.00
2023-01-09T01:01:25.831Z,0.00
2023-01-09T01:02:25.967Z,0.00
2023-01-09T01:03:25.857Z,0.00
2023-01-09T01:04:25.939Z,0.00
2023-01-09T01:05:26.025Z,0.00
2023-01-09T01:06:26.129Z,0.00
2023-01-09T01:07:26.197Z,0.00
2023-01-09T01:08:26.251Z,0.00
2023-01-09T01:09:26.340Z,0.00
2023-01-09T01:10:26.411Z,0.00
2023-01-09T01:11:26.522Z,0.00
2023-01-09T01:12:26.590Z,0.00
2023-01-09T01:13:26.689Z,0.00
2023-01-09T01:14:26.753Z,0.00
2023-01-09T01:15:26.848Z,0.00
2023-01-09T01:16:26.974Z,0.00
2023-01-09T01:17:27.011Z,0.00
2023-01-09T01:18:27.106Z,0.00
2023-01-09T01:19:27.181Z,0.00
2023-01-09T01:20:27.281Z,0.00
2023-01-09T01:21:27.368Z,0.00
2023-01-09T01:22:27.466Z,0.00
2023-01-09T01:23:27.518Z,0.00
2023-01-09T01:24:27.606Z,0.00
2023-01-09T01:25:27.685Z,0.00
2023-01-09T01:26:27.787Z,0.00
2023-01-09T01:27:27.857Z,0.00
2023-01-09T01:28:27.957Z,0.00
2023-01-09T01:29:28.031Z,0.00
2023-01-09T01:30:28.174Z,0.00
2023-01-09T01:31:28.168Z,0.00
2023-01-09T01:32:28.230Z,0.00
2023-01-09T01:33:28.305Z,0.00
2023-01-09T01:34:28.397Z,0.00
2023-01-09T01:35:28.467Z,0.00
2023-01-09T01:36:28.574Z,0.00
2023-01-09T01:37:28.628Z,0.00
2023-01-09T01:38:28.718Z,0.00
2023-01-09T01:39:28.791Z,0.00
2023-01-09T01:40:28.891Z,0.00
2023-01-09T01:41:28.983Z,0.00
2023-01-09T01:42:29.052Z,0.00
2023-01-09T01:43:29.107Z,0.00
2023-01-09T01:44:29.202Z,0.00
2023-01-09T01:45:29.263Z,0.00
2023-01-09T01:46:29.385Z,0.00
2023-01-09T01:47:29.435Z,0.00
2023-01-09T01:48:29.527Z,0.00
2023-01-09T01:49:29.634Z,0.00
2023-01-09T01:50:29.684Z,0.00
2023-01-09T01:51:29.775Z,0.00
2023-01-09T01:52:29.863Z,0.00
2023-01-09T01:53:29.936Z,0.00
2023-01-09T01:54:30.041Z,0.00
2023-01-09T01:55:30.113Z,0.00
2023-01-09T01:56:30.215Z,0.00
2023-01-09T01:57:30.264Z,0.00
2023-01-09T01:58:30.338Z,0.00
2023-01-09T01:59:30.409Z,0.00
2023-01-09T02:00:30.491Z,0.00
2023-01-09T02:01:30.695Z,0.00
2023-01-09T02:02:30.745Z,0.00
2023-01-09T02:03:30.725Z,0.00
2023-01-09T02:04:30.811Z,0.00
2023-01-09T02:05:30.878Z,0.00
2023-01-09T02:06:30.987Z,0.00
2023-01-09T02:07:31.067Z,0.00
2023-01-09T02:08:31.142Z,0.00
2023-01-09T02:09:31.218Z,0.00
2023-01-09T02:10:31.318Z,0.00
2023-01-09T02:11:31.397Z,0.00
2023-01-09T02:12:31.466Z,0.00
2023-01-09T02:13:31.565Z,0.00
2023-01-09T02:14:31.613Z,0.00
2023-01-09T02:15:31.689Z,0.00
2023-01-09T02:16:31.794Z,0.00
2023-01-09T02:17:31.847Z,0.00
2023-01-09T02:18:31.950Z,0.00
2023-01-09T02:19:32.023Z,0.00
2023-01-09T02:20:32.117Z,0.00
2023-01-09T02:21:32.198Z,0.00
2023-01-09T02:22:32.285Z,0.00
2023-01-09T02:23:32.329Z,0.00
2023-01-09T02:24:32.429Z,0.00
2023-01-09T02:25:32.503Z,0.00
2023-01-09T02:26:32.619Z,0.00
2023-01-09T02:27:32.686Z,0.00
2023-01-09T02:28:32.770Z,0.00
2023-01-09T02:29:32.848Z,0.00
2023-01-09T02:30:32.946Z,0.00
2023-01-09T02:31:33.107Z,0.00
2023-01-09T02:32:33.112Z,0.00
2023-01-09T02:33:33.185Z,0.00
2023-01-09T02:34:33.278Z,0.00
2023-01-09T02:35:33.359Z,0.00
2023-01-09T02:36:33.465Z,0.00
2023-01-09T02:37:33.538Z,0.00
2023-01-09T02:38:33.633Z,0.00
2023-01-09T02:39:33.712Z,0.00
2023-01-09T02:40:33.816Z,0.00
2023-01-09T02:41:33.887Z,0.00
2023-01-09T02:42:33.952Z,0.00
2023-01-09T02:43:34.018Z,0.00
2023-01-09T02:44:34.124Z,0.00
2023-01-09T02:45:34.233Z,0.00
2023-01-09T02:46:34.291Z,0.00
2023-01-09T02:47:34.349Z,0.00
2023-01-09T02:48:34.479Z,0.00
2023-01-09T02:49:34.517Z,0.00
2023-01-09T02:50:34.599Z,0.00
2023-01-09T02:51:34.671Z,0.00
2023-01-09T02:52:34.748Z,0.00
2023-01-09T02:53:34.813Z,0.00
2023-01-09T02:54:34.912Z,0.00
2023-01-09T02:55:34.985Z,0.00
2023-01-09T02:56:35.088Z,0.00
2023-01-09T02:57:35.157Z,0.00
2023-01-09T02:58:35.268Z,0.00
2023-01-09T02:59:35.337Z,0.00
2023-01-09T03:00:35.446Z,0.00
2023-01-09T03:01:35.641Z,0.00
2023-01-09T03:02:35.662Z,0.00
2023-01-09T03:03:35.643Z,0.00
2023-01-09T03:04:35.727Z,0.00
2023-01-09T03:05:35.795Z,0.00
2023-01-09T03:06:35.910Z,0.00
2023-01-09T03:07:35.980Z,0.00
2023-01-09T03:08:36.057Z,0.00
2023-01-09T03:09:36.136Z,0.00
2023-01-09T03:10:36.233Z,0.00
2023-01-09T03:11:36.429Z,0.00
2023-01-09T03:12:36.380Z,0.00
2023-01-09T03:13:36.449Z,0.00
2023-01-09T03:14:36.530Z,0.00
2023-01-09T03:15:36.612Z,0.00
2023-01-09T03:16:36.792Z,0.00
2023-01-09T03:17:36.782Z,0.00
2023-01-09T03:18:36.888Z,0.00
2023-01-09T03:19:36.951Z,0.00
2023-01-09T03:20:37.049Z,0.00
2023-01-09T03:21:37.129Z,0.00
2023-01-09T03:22:37.189Z,0.00
2023-01-09T03:23:37.263Z,0.00
2023-01-09T03:24:37.358Z,0.00
2023-01-09T03:25:37.437Z,0.00
2023-01-09T03:26:37.537Z,0.00
2023-01-09T03:27:37.593Z,0.00
2023-01-09T03:28:37.687Z,0.00
2023-01-09T03:29:37.749Z,0.00
2023-01-09T03:30:37.840Z,0.00
2023-01-09T03:31:38.035Z,0.00
2023-01-09T03:32:38.004Z,0.00
2023-01-09T03:33:38.076Z,0.00
2023-01-09T03:34:38.170Z,0.00
2023-01-09T03:35:38.243Z,0.00
2023-01-09T03:36:38.332Z,0.00
2023-01-09T03:37:38.400Z,0.00
2023-01-09T03:38:38.487Z,0.00
2023-01-09T03:39:38.562Z,0.00
2023-01-09T03:40:38.660Z,0.00
2023-01-09T03:41:38.754Z,0.00
2023-01-09T03:42:38.827Z,0.00
2023-01-09T03:43:38.899Z,0.00
2023-01-09T03:44:38.987Z,0.00
2023-01-09T03:45:39.174Z,0.00
2023-01-09T03:46:39.167Z,0.00
2023-01-09T03:47:39.234Z,0.00
2023-01-09T03:48:39.333Z,0.00
2023-01-09T03:49:39.391Z,0.00
2023-01-09T03:50:39.484Z,0.00
2023-01-09T03:51:39.565Z,0.00
2023-01-09T03:52:39.634Z,0.00
2023-01-09T03:53:39.705Z,0.00
2023-01-09T03:54:39.807Z,0.00
2023-01-09T03:55:39.885Z,0.00
2023-01-09T03:56:39.995Z,0.00
2023-01-09T03:57:40.057Z,0.00
2023-01-09T03:58:40.161Z,0.00
2023-01-09T03:59:40.222Z,0.00
2023-01-09T04:00:40.318Z,0.00
2023-01-09T04:01:40.449Z,0.00
2023-01-09T04:02:40.477Z,0.00
2023-01-09T04:03:40.606Z,0.00
2023-01-09T04:04:40.644Z,0.00
2023-01-09T04:05:40.699Z,0.00
2023-01-09T04:06:40.796Z,0.00
2023-01-09T04:07:40.872Z,0.00
2023-01-09T04:08:40.966Z,0.00
2023-01-09T04:09:41.038Z,0.00
2023-01-09T04:10:41.127Z,0.00
2023-01-09T04:11:41.215Z,0.00
2023-01-09T04:12:41.294Z,0.00
2023-01-09T04:13:41.369Z,0.00
2023-01-09T04:14:41.462Z,0.00
2023-01-09T04:15:41.539Z,0.00
2023-01-09T04:16:41.713Z,0.00
2023-01-09T04:17:41.716Z,0.00
2023-01-09T04:18:41.786Z,0.00
2023-01-09T04:19:41.851Z,0.00
2023-01-09T04:20:41.950Z,0.00
2023-01-09T04:21:42.047Z,0.00
2023-01-09T04:22:42.129Z,0.00
2023-01-09T04:23:42.197Z,0.00
2023-01-09T04:24:42.294Z,0.00
2023-01-09T04:25:42.366Z,0.00
2023-01-09T04:26:42.467Z,0.00
2023-01-09T04:27:42.529Z,0.00
2023-01-09T04:28:42.632Z,0.00
2023-01-09T04:29:42.703Z,0.00
2023-01-09T04:30:42.805Z,0.00
2023-01-09T04:31:42.943Z,0.00
2023-01-09T04:32:42.963Z,0.00
2023-01-09T04:33:43.015Z,0.00
2023-01-09T04:34:43.113Z,0.00
2023-01-09T04:35:43.185Z,0.00
2023-01-09T04:36:43.284Z,0.00
2023-01-09T04:37:43.325Z,0.00
2023-01-09T04:38:43.418Z,0.00
2023-01-09T04:39:43.493Z,0.00
2023-01-09T04:40:43.593Z,0.00
2023-01-09T04:41:43.701Z,0.00
2023-01-09T04:42:43.764Z,0.00
2023-01-09T04:43:43.827Z,0.00
2023-01-09T04:44:43.926Z,0.00
2023-01-09T04:45:44.038Z,0.00
2023-01-09T04:46:44.112Z,0.00
2023-01-09T04:47:44.153Z,0.00
2023-01-09T04:48:44.242Z,0.00
2023-01-09T04:49:44.327Z,0.00
2023-01-09T04:50:44.418Z,0.00
2023-01-09T04:51:44.502Z,0.00
2023-01-09T04:52:44.572Z,0.00
2023-01-09T04:53:44.634Z,0.00
2023-01-09T04:54:44.722Z,0.00
2023-01-09T04:55:44.794Z,0.00
2023-01-09T04:56:44.900Z,0.00
2023-01-09T04:57:44.937Z,0.00
2023-01-09T04:58:45.032Z,0.00
2023-01-09T04:59:45.088Z,0.00
2023-01-09T05:00:45.216Z,0.00
2023-01-09T05:01:45.435Z,0.00
2023-01-09T05:02:45.324Z,0.00
2023-01-09T05:03:45.403Z,0.00
2023-01-09T05:04:45.506Z,0.00
2023-01-09T05:05:45.570Z,0.00
2023-01-09T05:06:45.659Z,0.00
2023-01-09T05:07:45.723Z,0.00
2023-01-09T05:08:45.825Z,0.00
2023-01-09T05:09:45.876Z,0.00
2023-01-09T05:10:45.974Z,0.00
2023-01-09T05:11:46.061Z,0.00
2023-01-09T05:12:46.128Z,0.00
2023-01-09T05:13:46.196Z,0.00
2023-01-09T05:14:46.298Z,0.00
2023-01-09T05:15:46.355Z,0.00
2023-01-09T05:16:46.481Z,0.00
2023-01-09T05:17:46.518Z,0.00
2023-01-09T05:18:46.614Z,0.00
2023-01-09T05:19:46.690Z,0.00
2023-01-09T05:20:46.753Z,0.00
2023-01-09T05:21:47.019Z,0.00
2023-01-09T05:22:46.923Z,0.00
2023-01-09T05:23:47.001Z,0.00
2023-01-09T05:24:47.105Z,0.00
2023-01-09T05:25:47.171Z,0.00
2023-01-09T05:26:47.408Z,0.00
2023-01-09T05:27:47.343Z,0.00
2023-01-09T05:28:47.424Z,0.00
2023-01-09T05:29:47.493Z,0.00
2023-01-09T05:30:47.581Z,0.00
2023-01-09T05:31:47.689Z,0.00
2023-01-09T05:32:47.738Z,0.00
2023-01-09T05:33:47.808Z,0.00
2023-01-09T05:34:47.885Z,0.00
2023-01-09T05:35:47.979Z,0.00
2023-01-09T05:36:48.131Z,0.00
2023-01-09T05:37:48.133Z,0.00
2023-01-09T05:38:48.204Z,0.00
2023-01-09T05:39:48.295Z,0.00
2023-01-09T05:40:48.368Z,0.00
2023-01-09T05:41:48.480Z,0.00
2023-01-09T05:42:48.537Z,0.00
2023-01-09T05:43:48.635Z,0.00
2023-01-09T05:44:48.688Z,0.00
2023-01-09T05:45:48.780Z,0.00
2023-01-09T05:46:48.834Z,0.00
2023-01-09T05:47:48.898Z,0.00
2023-01-09T05:48:48.973Z,0.00
2023-01-09T05:49:49.067Z,0.00
2023-01-09T05:50:49.148Z,0.00
2023-01-09T05:51:49.240Z,0.00
2023-01-09T05:52:49.306Z,0.00
2023-01-09T05:53:49.386Z,0.00
2023-01-09T05:54:49.473Z,0.00
2023-01-09T05:55:49.554Z,0.00
2023-01-09T05:56:49.651Z,0.00
2023-01-09T05:57:49.753Z,0.00
2023-01-09T05:58:49.815Z,0.00
2023-01-09T05:59:49.895Z,0.00
2023-01-09T06:00:50.001Z,0.00
2023-01-09T06:01:50.093Z,0.00
2023-01-09T06:02:50.192Z,0.00
2023-01-09T06:03:50.216Z,0.00
2023-01-09T06:04:50.281Z,0.00
2023-01-09T06:05:50.359Z,0.00
2023-01-09T06:06:50.467Z,0.00
2023-01-09T06:07:50.542Z,0.00
2023-01-09T06:08:50.646Z,0.00
2023-01-09T06:09:50.719Z,0.00
2023-01-09T06:10:50.809Z,0.00
2023-01-09T06:11:50.888Z,0.00
2023-01-09T06:12:50.965Z,0.00
2023-01-09T06:13:51.034Z,0.00
2023-01-09T06:14:51.132Z,0.00
2023-01-09T06:15:51.239Z,0.00
2023-01-09T06:16:51.315Z,0.00
2023-01-09T06:17:51.351Z,0.00
2023-01-09T06:18:51.426Z,0.00
2023-01-09T06:19:51.522Z,0.00
2023-01-09T06:20:51.603Z,0.00
2023-01-09T06:21:51.693Z,0.00
2023-01-09T06:22:51.765Z,0.00
2023-01-09T06:23:51.833Z,0.00
2023-01-09T06:24:51.930Z,0.00
2023-01-09T06:25:51.986Z,0.00
2023-01-09T06:26:52.099Z,0.00
2023-01-09T06:27:52.242Z,0.00
2023-01-09T06:28:52.246Z,0.00
2023-01-09T06:29:52.324Z,0.00
2023-01-09T06:30:52.770Z,0.00
2023-01-09T06:31:52.589Z,0.00
2023-01-09T06:32:52.575Z,0.00
2023-01-09T06:33:52.648Z,0.00
2023-01-09T06:34:52.720Z,0.00
2023-01-09T06:35:52.791Z,0.00
2023-01-09T06:36:52.889Z,0.00
2023-01-09T06:37:52.958Z,0.00
2023-01-09T06:38:53.056Z,0.00
2023-01-09T06:39:53.205Z,0.00
2023-01-09T06:40:53.215Z,0.00
2023-01-09T06:41:53.317Z,0.00
2023-01-09T06:42:53.370Z,0.00
2023-01-09T06:43:53.446Z,0.00
2023-01-09T06:44:53.549Z,0.00
2023-01-09T06:45:53.629Z,0.00
2023-01-09T06:46:53.708Z,0.00
2023-01-09T06:47:53.758Z,0.00
2023-01-09T06:48:53.878Z,0.00
2023-01-09T06:49:53.958Z,0.00
2023-01-09T06:50:54.030Z,0.00
2023-01-09T06:51:54.120Z,0.00
2023-01-09T06:52:54.202Z,0.00
2023-01-09T06:53:54.268Z,0.00
2023-01-09T06:54:54.357Z,0.00
2023-01-09T06:55:54.431Z,0.00
2023-01-09T06:56:54.524Z,0.00
2023-01-09T06:57:54.575Z,0.00
2023-01-09T06:58:54.668Z,0.00
2023-01-09T06:59:54.739Z,0.00
2023-01-09T07:00:54.863Z,0.00
2023-01-09T07:01:55.064Z,0.00
2023-01-09T07:02:55.013Z,0.00
2023-01-09T07:03:55.120Z,0.00
2023-01-09T07:04:55.180Z,0.00
2023-01-09T07:05:55.249Z,0.00
2023-01-09T07:06:55.537Z,0.00
2023-01-09T07:07:55.406Z,0.00
2023-01-09T07:08:55.512Z,0.00
2023-01-09T07:09:55.596Z,0.00
2023-01-09T07:10:55.666Z,0.00
2023-01-09T07:11:55.743Z,0.00
2023-01-09T07:12:55.827Z,0.00
2023-01-09T07:13:55.896Z,0.00
2023-01-09T07:14:57.605Z,0.00
2023-01-09T07:15:56.066Z,0.00
2023-01-09T07:16:56.132Z,0.00
2023-01-09T07:17:56.169Z,0.00
2023-01-09T07:18:56.250Z,0.00
2023-01-09T07:19:56.325Z,0.00
2023-01-09T07:20:56.417Z,0.00
2023-01-09T07:21:56.503Z,0.00
2023-01-09T07:22:56.586Z,0.00
2023-01-09T07:23:56.656Z,0.00
2023-01-09T07:24:56.758Z,0.00
2023-01-09T07:25:56.823Z,0.00
2023-01-09T07:26:56.930Z,0.00
2023-01-09T07:27:57.007Z,0.00
2023-01-09T07:28:57.117Z,0.00
2023-01-09T07:29:57.170Z,0.00
2023-01-09T07:30:57.313Z,0.00
2023-01-09T07:31:57.382Z,5.62
2023-01-09T07:32:57.446Z,5.62
2023-01-09T07:33:57.519Z,5.62
2023-01-09T07:34:57.604Z,5.62
2023-01-09T07:35:57.686Z,5.62
2023-01-09T07:36:57.791Z,5.62
2023-01-09T07:37:57.825Z,5.62
2023-01-09T07:38:57.922Z,5.62
2023-01-09T07:39:57.999Z,5.62
2023-01-09T07:40:58.083Z,5.62
2023-01-09T07:41:58.174Z,11.25
2023-01-09T07:42:58.269Z,11.25
2023-01-09T07:43:58.320Z,11.25
2023-01-09T07:44:58.422Z,11.25
2023-01-09T07:45:58.503Z,16.88
2023-01-09T07:46:58.578Z,16.88
2023-01-09T07:47:58.647Z,22.50
2023-01-09T07:48:58.740Z,28.12
2023-01-09T07:49:58.811Z,33.75
2023-01-09T07:50:58.905Z,39.38
2023-01-09T07:51:59.024Z,45.00
2023-01-09T07:52:59.073Z,56.25
2023-01-09T07:53:59.165Z,61.88
2023-01-09T07:54:59.466Z,78.75
2023-01-09T07:55:59.292Z,78.75
2023-01-09T07:56:59.460Z,84.38
2023-01-09T07:57:59.432Z,78.75
2023-01-09T07:58:59.538Z,73.12
2023-01-09T07:59:59.606Z,73.12
2023-01-09T08:00:59.750Z,67.50
2023-01-09T08:01:59.811Z,78.75
2023-01-09T08:02:59.924Z,90.00
2023-01-09T08:03:59.933Z,123.75
2023-01-09T08:05:00.014Z,168.75
2023-01-09T08:06:00.101Z,202.50
2023-01-09T08:07:00.205Z,163.12
2023-01-09T08:08:00.233Z,135.00
2023-01-09T08:09:00.334Z,180.00
2023-01-09T08:10:00.403Z,258.75
2023-01-09T08:11:00.496Z,337.50
2023-01-09T08:12:00.582Z,258.75
2023-01-09T08:13:00.646Z,146.25
2023-01-09T08:14:00.709Z,106.88
2023-01-09T08:15:00.829Z,112.50
2023-01-09T08:16:01.051Z,174.38
2023-01-09T08:17:00.982Z,140.62
2023-01-09T08:18:01.067Z,157.50
2023-01-09T08:19:01.125Z,112.50
2023-01-09T08:20:01.205Z,95.62
2023-01-09T08:21:01.282Z,118.12
2023-01-09T08:22:01.411Z,118.12
2023-01-09T08:23:01.419Z,90.00
2023-01-09T08:24:01.497Z,123.75
2023-01-09T08:25:01.640Z,129.38
2023-01-09T08:26:01.663Z,151.88
2023-01-09T08:27:01.748Z,174.38
2023-01-09T08:28:01.821Z,146.25
2023-01-09T08:29:01.938Z,191.25
2023-01-09T08:30:02.001Z,185.62
2023-01-09T08:31:02.102Z,106.88
2023-01-09T08:32:02.190Z,101.25
2023-01-09T08:33:02.264Z,129.38
2023-01-09T08:34:02.337Z,208.12
2023-01-09T08:35:02.492Z,196.88
2023-01-09T08:36:02.556Z,247.50
2023-01-09T08:37:02.634Z,286.88
2023-01-09T08:38:02.713Z,247.50
2023-01-09T08:39:02.789Z,247.50
2023-01-09T08:40:02.864Z,236.25
2023-01-09T08:41:02.962Z,213.75
2023-01-09T08:42:03.056Z,225.00
2023-01-09T08:43:03.118Z,241.88
2023-01-09T08:44:03.178Z,303.75
2023-01-09T08:45:03.277Z,286.88
2023-01-09T08:46:03.465Z,275.62
2023-01-09T08:47:03.443Z,376.88
2023-01-09T08:48:03.491Z,528.75
2023-01-09T08:49:03.576Z,781.88
2023-01-09T08:50:03.652Z,832.50
2023-01-09T08:51:03.774Z,793.12
2023-01-09T08:52:03.838Z,781.88
2023-01-09T08:53:03.917Z,708.75
2023-01-09T08:54:03.988Z,320.62
2023-01-09T08:55:04.083Z,765.00
2023-01-09T08:56:04.167Z,905.62
2023-01-09T08:57:04.271Z,939.38
2023-01-09T08:58:04.304Z,596.25
2023-01-09T08:59:04.391Z,1080.00
2023-01-09T09:00:04.470Z,1085.62
2023-01-09T09:01:04.562Z,1181.25
2023-01-09T09:02:04.668Z,1260.00
2023-01-09T09:03:04.873Z,1158.75
2023-01-09T09:04:04.814Z,1305.00
2023-01-09T09:05:04.895Z,871.88
2023-01-09T09:06:05.979Z,978.75
2023-01-09T09:07:05.084Z,1170.00
2023-01-09T09:08:05.119Z,815.62
2023-01-09T09:09:05.223Z,1203.75
2023-01-09T09:10:05.325Z,776.25
2023-01-09T09:11:05.376Z,1209.38
2023-01-09T09:12:05.463Z,703.12
2023-01-09T09:13:05.541Z,1215.00
2023-01-09T09:14:05.600Z,1198.12
2023-01-09T09:15:05.737Z,1203.75
2023-01-09T09:16:05.928Z,1203.75
2023-01-09T09:17:05.906Z,1170.00
2023-01-09T09:18:05.944Z,1226.25
2023-01-09T09:19:06.028Z,652.50
2023-01-09T09:20:06.113Z,1192.50
2023-01-09T09:21:06.211Z,1220.62
2023-01-09T09:22:06.293Z,1248.75
2023-01-09T09:23:06.374Z,1226.25
2023-01-09T09:24:06.441Z,1186.88
2023-01-09T09:25:06.549Z,1192.50
2023-01-09T09:26:06.614Z,1192.50
2023-01-09T09:27:06.739Z,1175.62
2023-01-09T09:28:06.793Z,1125.00
2023-01-09T09:29:06.876Z,1203.75
2023-01-09T09:30:06.952Z,1186.88
2023-01-09T09:31:07.106Z,1215.00
2023-01-09T09:32:07.150Z,517.50
2023-01-09T09:33:07.189Z,720.00
2023-01-09T09:34:07.271Z,1141.88
2023-01-09T09:35:07.348Z,551.25
2023-01-09T09:36:07.430Z,528.75
2023-01-09T09:37:07.626Z,337.50
2023-01-09T09:38:07.594Z,298.12
2023-01-09T09:39:07.688Z,855.00
2023-01-09T09:40:18.068Z,720.00
2023-01-09T09:41:07.861Z,354.38
2023-01-09T09:42:07.944Z,489.38
2023-01-09T09:43:08.010Z,393.75
2023-01-09T09:44:08.101Z,866.25
2023-01-09T09:45:08.175Z,596.25
2023-01-09T09:46:08.282Z,585.00
2023-01-09T09:47:08.359Z,461.25
2023-01-09T09:48:08.414Z,416.25
2023-01-09T09:49:08.482Z,371.25
2023-01-09T09:50:08.575Z,421.88
2023-01-09T09:51:08.606Z,444.38
2023-01-09T09:52:08.703Z,405.00
2023-01-09T09:53:08.805Z,365.62
2023-01-09T09:54:08.835Z,371.25
2023-01-09T09:55:08.915Z,343.12
2023-01-09T09:56:08.987Z,326.25
2023-01-09T09:57:09.079Z,315.00
2023-01-09T09:58:09.147Z,343.12
2023-01-09T09:59:09.235Z,360.00
2023-01-09T10:00:09.324Z,320.62
2023-01-09T10:01:09.575Z,315.00
2023-01-09T10:02:09.582Z,309.38
2023-01-09T10:03:09.663Z,275.62
2023-01-09T10:04:09.649Z,298.12
2023-01-09T10:05:09.729Z,253.12
2023-01-09T10:06:09.804Z,309.38
2023-01-09T10:07:09.895Z,331.88
2023-01-09T10:08:15.666Z,421.88
2023-01-09T10:09:10.012Z,585.00
2023-01-09T10:10:10.089Z,720.00
2023-01-09T10:11:10.159Z,551.25
2023-01-09T10:12:10.331Z,472.50
2023-01-09T10:13:10.308Z,450.00
2023-01-09T10:14:22.878Z,433.12
2023-01-09T10:15:10.824Z,416.25
2023-01-09T10:16:10.549Z,410.62
2023-01-09T10:17:10.622Z,427.50
2023-01-09T10:18:10.682Z,438.75
2023-01-09T10:19:11.540Z,421.88
2023-01-09T10:20:10.827Z,478.12
2023-01-09T10:21:10.904Z,433.12
2023-01-09T10:22:11.011Z,326.25
2023-01-09T10:23:11.074Z,309.38
2023-01-09T10:24:11.147Z,309.38
2023-01-09T10:25:11.249Z,326.25
2023-01-09T10:26:11.287Z,253.12
2023-01-09T10:27:11.387Z,213.75
2023-01-09T10:28:11.430Z,174.38
2023-01-09T10:29:11.536Z,157.50
2023-01-09T10:30:11.559Z,168.75
2023-01-09T10:31:11.729Z,163.12
2023-01-09T10:32:11.738Z,123.75
2023-01-09T10:33:11.821Z,112.50
2023-01-09T10:34:11.900Z,112.50
2023-01-09T10:35:12.001Z,112.50
2023-01-09T10:36:12.051Z,123.75
2023-01-09T10:37:12.134Z,129.38
2023-01-09T10:38:12.181Z,118.12
2023-01-09T10:39:12.253Z,112.50
2023-01-09T10:40:12.324Z,112.50
2023-01-09T10:41:12.413Z,106.88
2023-01-09T10:42:12.488Z,112.50
2023-01-09T10:43:12.611Z,135.00
2023-01-09T10:44:12.631Z,151.88
2023-01-09T10:45:12.721Z,163.12
2023-01-09T10:46:12.799Z,163.12
2023-01-09T10:47:12.877Z,191.25
2023-01-09T10:48:12.924Z,219.38
2023-01-09T10:49:13.011Z,219.38
2023-01-09T10:50:13.077Z,230.62
2023-01-09T10:51:13.153Z,258.75
2023-01-09T10:52:15.459Z,230.62
2023-01-09T10:53:13.319Z,225.00
2023-01-09T10:54:13.401Z,241.88
2023-01-09T10:55:13.477Z,225.00
2023-01-09T10:56:13.561Z,208.12
2023-01-09T10:57:13.666Z,253.12
2023-01-09T10:58:13.697Z,264.38
2023-01-09T10:59:13.774Z,230.62
2023-01-09T11:00:13.847Z,219.38
2023-01-09T11:01:13.954Z,225.00
2023-01-09T11:02:14.119Z,225.00
2023-01-09T11:03:14.223Z,196.88
2023-01-09T11:04:14.179Z,202.50
2023-01-09T11:05:14.303Z,241.88
2023-01-09T11:06:14.356Z,275.62
2023-01-09T11:07:14.452Z,264.38
2023-01-09T11:08:14.497Z,258.75
2023-01-09T11:09:14.587Z,241.88
2023-01-09T11:10:14.684Z,253.12
2023-01-09T11:11:14.749Z,275.62
2023-01-09T11:12:14.842Z,315.00
2023-01-09T11:13:14.927Z,337.50
2023-01-09T11:14:14.993Z,286.88
2023-01-09T11:15:15.051Z,230.62
2023-01-09T11:16:15.154Z,208.12
2023-01-09T11:17:15.240Z,236.25
2023-01-09T11:18:15.299Z,281.25
2023-01-09T11:19:15.392Z,286.88
2023-01-09T11:20:15.469Z,286.88
2023-01-09T11:21:15.533Z,286.88
2023-01-09T11:22:15.641Z,298.12
2023-01-09T11:23:15.715Z,298.12
2023-01-09T11:24:15.820Z,298.12
2023-01-09T11:25:15.874Z,292.50
2023-01-09T11:26:15.953Z,292.50
2023-01-09T11:27:16.038Z,253.12
2023-01-09T11:28:16.080Z,247.50
2023-01-09T11:29:16.165Z,253.12
2023-01-09T11:30:16.326Z,253.12
2023-01-09T11:31:16.319Z,258.75
2023-01-09T11:32:16.368Z,241.88
2023-01-09T11:33:16.437Z,247.50
2023-01-09T11:34:16.508Z,230.62
2023-01-09T11:35:16.571Z,230.62
2023-01-09T11:36:16.663Z,258.75
2023-01-09T11:37:16.741Z,247.50
2023-01-09T11:38:16.792Z,247.50
2023-01-09T11:39:16.862Z,247.50
2023-01-09T11:40:16.956Z,225.00
2023-01-09T11:41:17.040Z,208.12
2023-01-09T11:42:17.131Z,219.38
2023-01-09T11:43:17.224Z,236.25
2023-01-09T11:44:17.311Z,241.88
2023-01-09T11:45:17.384Z,253.12
2023-01-09T11:46:17.567Z,275.62
2023-01-09T11:47:17.567Z,281.25
2023-01-09T11:48:17.609Z,275.62
2023-01-09T11:49:17.718Z,270.00
2023-01-09T11:50:17.839Z,275.62
2023-01-09T11:51:17.870Z,270.00
2023-01-09T11:52:17.963Z,258.75
2023-01-09T11:53:18.026Z,270.00
2023-01-09T11:54:18.304Z,281.25
2023-01-09T11:55:18.198Z,281.25
2023-01-09T11:56:18.304Z,270.00
2023-01-09T11:57:18.381Z,253.12
2023-01-09T11:58:18.415Z,219.38
2023-01-09T11:59:18.507Z,191.25
2023-01-09T12:00:18.583Z,191.25
2023-01-09T12:01:18.670Z,196.88
2023-01-09T12:02:18.810Z,202.50
2023-01-09T12:03:18.847Z,247.50
2023-01-09T12:04:18.857Z,281.25
2023-01-09T12:05:18.945Z,275.62
2023-01-09T12:06:19.028Z,275.62
2023-01-09T12:07:19.133Z,270.00
2023-01-09T12:08:19.156Z,258.75
2023-01-09T12:09:19.257Z,236.25
2023-01-09T12:10:19.339Z,208.12
2023-01-09T12:11:19.411Z,202.50
2023-01-09T12:12:19.505Z,191.25
2023-01-09T12:13:19.588Z,163.12
2023-01-09T12:14:19.671Z,140.62
2023-01-09T12:15:19.774Z,129.38
2023-01-09T12:16:19.885Z,118.12
2023-01-09T12:17:19.939Z,135.00
2023-01-09T12:18:20.018Z,146.25
2023-01-09T12:19:20.101Z,157.50
2023-01-09T12:20:20.150Z,163.12
2023-01-09T12:21:20.231Z,168.75
2023-01-09T12:22:20.324Z,163.12
2023-01-09T12:23:20.372Z,157.50
2023-01-09T12:24:20.450Z,157.50
2023-01-09T12:25:20.548Z,151.88
2023-01-09T12:26:20.627Z,157.50
2023-01-09T12:27:20.754Z,151.88
2023-01-09T12:28:20.803Z,151.88
2023-01-09T12:29:20.878Z,157.50
2023-01-09T12:30:20.960Z,163.12
2023-01-09T12:31:21.161Z,163.12
2023-01-09T12:32:21.115Z,163.12
2023-01-09T12:33:21.168Z,157.50
2023-01-09T12:34:21.247Z,151.88
2023-01-09T12:35:21.348Z,151.88
2023-01-09T12:36:21.423Z,151.88
2023-01-09T12:37:21.505Z,157.50
2023-01-09T12:38:21.532Z,157.50
2023-01-09T12:39:21.610Z,151.88
2023-01-09T12:40:21.669Z,140.62
2023-01-09T12:41:21.737Z,129.38
2023-01-09T12:42:21.819Z,123.75
2023-01-09T12:43:21.900Z,118.12
2023-01-09T12:44:34.665Z,118.12
2023-01-09T12:45:22.152Z,123.75
2023-01-09T12:46:22.098Z,140.62
2023-01-09T12:47:22.198Z,163.12
2023-01-09T12:48:22.227Z,185.62
2023-01-09T12:49:22.336Z,213.75
2023-01-09T12:50:22.384Z,230.62
2023-01-09T12:51:22.489Z,253.12
2023-01-09T12:52:22.559Z,247.50
2023-01-09T12:53:22.617Z,258.75
2023-01-09T12:54:22.698Z,258.75
2023-01-09T12:55:22.793Z,264.38
2023-01-09T12:56:22.845Z,264.38
2023-01-09T12:57:22.965Z,247.50
2023-01-09T12:58:23.146Z,230.62